Time;durP1;ratioP1;P1;durP2;ratioP2;P2;SDS_P1;SDS_P2;PMS_P1;PMS_P2;Temp;Humidity;BMP_temperature;BMP_pressure;BME280_temperature;BME280_humidity;BME280_pressure;Samples;Min_cycle;Max_cycle;Signal;HPM_P1;HPM_P2
2022/03/25 00:00:30;;;;;;;25.53;17.07;;;;;;;5.68;53.51;96521.75;6102523;23;20257;-79
2022/03/25 00:02:55;;;;;;;27.77;16.63;;;;;;;5.65;53.24;96520.19;6100759;23;20156;-79
2022/03/25 00:05:21;;;;;;;27.37;17.33;;;;;;;5.64;53.65;96515.94;6077800;23;20251;-78
2022/03/25 00:07:46;;;;;;;25.70;16.40;;;;;;;5.56;53.67;96517.31;6101878;23;20580;-79
2022/03/25 00:10:11;;;;;;;27.20;17.10;;;;;;;5.54;53.96;96519.16;6102140;23;20163;-79
2022/03/25 00:12:37;;;;;;;28.43;17.37;;;;;;;5.48;54.45;96514.38;6101209;23;20516;-78
2022/03/25 00:15:03;;;;;;;30.20;18.53;;;;;;;5.46;54.26;96516.22;6077942;23;20668;-79
2022/03/25 00:17:28;;;;;;;24.73;17.50;;;;;;;5.43;54.34;96514.66;6102251;23;20167;-79
2022/03/25 00:19:53;;;;;;;27.67;17.53;;;;;;;5.45;53.97;96517.16;6103633;23;20549;-79
2022/03/25 00:22:19;;;;;;;26.10;16.93;;;;;;;5.47;54.30;96517.88;6101643;23;20167;-79
2022/03/25 00:24:44;;;;;;;24.83;16.37;;;;;;;5.47;54.05;96513.53;6128081;23;20182;-79
2022/03/25 00:27:09;;;;;;;26.70;17.63;;;;;;;5.45;54.05;96509.41;6129446;23;20179;-79
2022/03/25 00:29:35;;;;;;;26.20;17.30;;;;;;;5.48;54.00;96514.38;6103766;23;20159;-79
2022/03/25 00:32:02;;;;;;;30.87;18.53;;;;;;;5.48;53.50;96510.06;6127025;23;20524;-78
2022/03/25 00:34:27;;;;;;;33.03;18.03;;;;;;;5.58;53.09;96507.75;6129676;23;20172;-79
2022/03/25 00:36:53;;;;;;;27.20;17.83;;;;;;;5.57;53.32;96503.53;6103790;23;20152;-79
2022/03/25 00:39:18;;;;;;;27.93;17.03;;;;;;;5.60;53.01;96504.16;6128451;23;20156;-79
2022/03/25 00:41:44;;;;;;;29.27;18.23;;;;;;;5.84;52.07;96490.69;6103034;23;20190;-79
2022/03/25 00:44:10;;;;;;;31.07;18.90;;;;;;;5.76;52.77;96493.75;6080210;23;20641;-79
2022/03/25 00:46:35;;;;;;;31.10;18.47;;;;;;;5.61;53.14;96495.50;6079381;23;20201;-79
2022/03/25 00:49:00;;;;;;;32.63;18.60;;;;;;;5.58;53.01;96497.47;6079237;23;20160;-80
2022/03/25 00:51:26;;;;;;;27.43;17.20;;;;;;;5.54;53.21;96489.06;6103277;23;20240;-78
2022/03/25 00:53:51;;;;;;;29.07;17.77;;;;;;;5.45;53.20;96489.63;6102862;23;20159;-79
2022/03/25 00:56:17;;;;;;;29.83;18.13;;;;;;;5.46;53.66;96480.97;6127927;23;20231;-79
2022/03/25 00:58:42;;;;;;;31.87;19.33;;;;;;;5.54;52.70;96485.66;6103996;23;20460;-78
2022/03/25 01:01:07;;;;;;;33.87;18.53;;;;;;;5.53;52.99;96482.25;6128812;23;20151;-79
2022/03/25 01:03:34;;;;;;;28.40;17.70;;;;;;;5.46;53.39;96483.56;6102927;23;20151;-79
2022/03/25 01:05:59;;;;;;;28.93;17.90;;;;;;;5.45;53.40;96479.31;6079374;23;20713;-79
2022/03/25 01:08:24;;;;;;;30.40;17.17;;;;;;;5.49;53.27;96487.72;6103097;23;20160;-78
2022/03/25 01:10:50;;;;;;;30.17;17.70;;;;;;;5.62;52.32;96478.31;6079444;23;20231;-79
2022/03/25 01:13:15;;;;;;;29.23;17.93;;;;;;;5.59;52.75;96481.06;6078507;23;20164;-79
2022/03/25 01:15:40;;;;;;;29.63;17.60;;;;;;;5.63;52.42;96485.09;6102757;23;20179;-80
2022/03/25 01:18:06;;;;;;;31.47;18.53;;;;;;;5.68;52.00;96486.50;6079098;23;20226;-79
2022/03/25 01:20:31;;;;;;;31.57;18.27;;;;;;;5.66;52.25;96487.50;6079047;23;20195;-79
2022/03/25 01:22:56;;;;;;;27.30;17.80;;;;;;;5.58;52.89;96474.28;6100735;23;20152;-78
2022/03/25 01:25:22;;;;;;;30.73;18.57;;;;;;;5.56;52.92;96487.22;6103409;23;20240;-79
2022/03/25 01:27:47;;;;;;;27.03;16.90;;;;;;;5.53;52.96;96477.13;6129593;23;20156;-79
2022/03/25 01:30:13;;;;;;;25.40;16.27;;;;;;;5.48;53.27;96480.88;6103297;23;20160;-79
2022/03/25 01:32:38;;;;;;;29.60;17.90;;;;;;;5.43;53.22;96480.34;6103079;23;20203;-79
2022/03/25 01:35:12;;;;;;;27.77;17.77;;;;;;;5.37;53.47;96479.78;6102811;23;20172;-78
2022/03/25 01:37:37;;;;;;;28.77;17.70;;;;;;;5.29;53.94;96482.00;6104794;23;20137;-78
2022/03/25 01:40:08;;;;;;;25.70;16.73;;;;;;;5.26;53.83;96479.63;6079588;23;20621;-78
2022/03/25 01:42:35;;;;;;;26.90;16.97;;;;;;;5.21;53.68;96480.81;6079960;23;20147;-78
2022/03/25 01:45:01;;;;;;;28.00;17.00;;;;;;;5.16;54.27;96483.66;6103200;23;20187;-79
2022/03/25 01:47:28;;;;;;;29.27;16.60;;;;;;;5.11;54.54;96483.94;6078865;23;20595;-79
2022/03/25 01:49:54;;;;;;;28.17;16.97;;;;;;;5.07;54.78;96479.91;6083684;23;20243;-78
2022/03/25 01:52:19;;;;;;;29.97;16.70;;;;;;;5.00;55.19;96477.78;6081395;23;20179;-78
2022/03/25 01:54:46;;;;;;;25.23;16.67;;;;;;;4.96;55.44;96479.72;6102098;23;20176;-78
2022/03/25 01:57:11;;;;;;;28.53;17.53;;;;;;;4.96;55.30;96478.88;6129020;23;20148;-78
2022/03/25 01:59:36;;;;;;;27.70;17.50;;;;;;;4.98;55.31;96482.19;6101593;23;20559;-79
2022/03/25 02:02:04;;;;;;;32.93;19.20;;;;;;;5.03;55.15;96480.16;6101396;23;20152;-79
2022/03/25 02:04:29;;;;;;;29.87;17.93;;;;;;;5.02;55.15;96478.50;6077888;23;20207;-78
2022/03/25 02:06:55;;;;;;;30.70;19.37;;;;;;;5.05;54.92;96478.34;6078048;23;20160;-79
2022/03/25 02:09:20;;;;;;;30.87;18.23;;;;;;;5.09;54.55;96478.06;6127255;23;20156;-78
2022/03/25 02:11:46;;;;;;;29.03;18.17;;;;;;;5.15;53.92;96476.88;6127085;23;20613;-79
2022/03/25 02:14:11;;;;;;;32.43;18.77;;;;;;;5.13;54.08;96481.28;6102268;23;20242;-79
2022/03/25 02:16:42;;;;;;;31.47;18.57;;;;;;;5.13;54.44;96475.31;6102533;23;20162;-79
2022/03/25 02:19:10;;;;;;;28.97;18.50;;;;;;;5.10;54.15;96468.56;6102143;23;20136;-79
2022/03/25 02:21:40;;;;;;;32.63;18.43;;;;;;;5.08;54.47;96475.56;6077762;23;20156;-79
2022/03/25 02:24:08;;;;;;;32.43;19.53;;;;;;;5.08;54.44;96471.25;6126342;23;20152;-80
2022/03/25 02:26:35;;;;;;;32.80;19.30;;;;;;;5.04;54.51;96477.50;6102068;23;20160;-79
2022/03/25 02:29:00;;;;;;;32.37;20.50;;;;;;;5.01;54.19;96471.69;6126522;23;20610;-79
2022/03/25 02:31:26;;;;;;;35.70;19.37;;;;;;;5.05;54.36;96470.63;6077556;23;20215;-79
2022/03/25 02:33:57;;;;;;;32.07;19.93;;;;;;;4.99;54.68;96466.66;6077726;23;20238;-79
2022/03/25 02:36:22;;;;;;;30.07;18.87;;;;;;;4.98;54.65;96469.31;6101593;23;20572;-79
2022/03/25 02:38:48;;;;;;;35.63;19.20;;;;;;;4.90;55.27;96468.94;6102690;23;20148;-79
2022/03/25 02:41:13;;;;;;;30.57;18.40;;;;;;;4.86;55.25;96470.03;6126141;23;20156;-78
2022/03/25 02:43:38;;;;;;;32.80;19.87;;;;;;;4.81;55.16;96476.28;6102147;23;20300;-79
2022/03/25 02:46:05;;;;;;;31.53;18.27;;;;;;;4.77;55.46;96471.38;6078132;23;20496;-78
2022/03/25 02:48:30;;;;;;;31.67;19.07;;;;;;;4.78;55.31;96473.06;6078453;23;20163;-79
2022/03/25 02:50:56;;;;;;;29.30;19.17;;;;;;;4.79;55.52;96467.84;6125870;23;20175;-79
2022/03/25 02:53:21;;;;;;;31.17;19.50;;;;;;;4.81;55.36;96468.56;6101702;23;20152;-79
2022/03/25 02:55:46;;;;;;;29.83;18.63;;;;;;;4.91;55.01;96468.03;6102350;23;20194;-79
2022/03/25 02:58:12;;;;;;;33.70;19.00;;;;;;;4.90;55.08;96474.91;6127559;23;20152;-79
2022/03/25 03:00:38;;;;;;;34.33;21.03;;;;;;;4.93;54.91;96468.75;6077464;23;20624;-79
2022/03/25 03:03:03;;;;;;;32.80;19.07;;;;;;;4.95;54.77;96470.34;6127237;23;20160;-78
2022/03/25 03:05:29;;;;;;;36.20;18.47;;;;;;;5.07;54.47;96463.63;6126121;23;20179;-79
2022/03/25 03:07:55;;;;;;;36.13;19.27;;;;;;;5.04;53.91;96466.38;6101702;23;20171;-78
2022/03/25 03:10:21;;;;;;;31.63;17.83;;;;;;;5.00;54.54;96467.47;6127992;23;20202;-79
2022/03/25 03:12:46;;;;;;;32.40;19.23;;;;;;;4.98;54.44;96467.56;6076506;23;20201;-79
2022/03/25 03:15:13;;;;;;;32.87;19.47;;;;;;;4.94;54.78;96467.81;6102182;23;20575;-77
2022/03/25 03:17:38;;;;;;;28.70;18.90;;;;;;;4.89;55.34;96472.44;6078134;23;20171;-78
2022/03/25 03:20:06;;;;;;;32.47;17.97;;;;;;;4.89;55.33;96464.72;6125932;23;20260;-79
2022/03/25 03:22:31;;;;;;;33.23;19.23;;;;;;;4.99;54.90;96470.97;6099309;23;20203;-78
2022/03/25 03:24:56;;;;;;;34.70;20.30;;;;;;;5.10;54.60;96463.44;6077405;23;20179;-79
2022/03/25 03:27:22;;;;;;;30.03;18.27;;;;;;;5.13;54.35;96463.25;6101311;23;20158;-79
2022/03/25 03:29:47;;;;;;;36.13;19.70;;;;;;;5.09;54.39;96461.78;6101325;23;20186;-80
2022/03/25 03:32:12;;;;;;;28.83;18.33;;;;;;;5.02;54.40;96457.91;6125257;23;20180;-78
2022/03/25 03:34:38;;;;;;;31.60;18.43;;;;;;;4.94;54.67;96453.22;6100906;23;20171;-78
2022/03/25 03:37:03;;;;;;;32.17;19.67;;;;;;;4.89;54.79;96455.25;6100992;23;20215;-78
2022/03/25 03:39:29;;;;;;;31.63;18.77;;;;;;;4.89;55.34;96455.25;6127154;23;20199;-78
2022/03/25 03:41:54;;;;;;;30.87;19.70;;;;;;;4.89;54.92;96452.69;6100804;23;20167;-78
2022/03/25 03:44:19;;;;;;;33.23;19.80;;;;;;;4.89;55.23;96451.84;6127259;23;20510;-79
2022/03/25 03:46:45;;;;;;;32.13;19.13;;;;;;;4.93;55.15;96456.72;6101053;23;20206;-77
2022/03/25 03:49:10;;;;;;;31.30;19.83;;;;;;;4.92;54.92;96455.06;6099507;23;20545;-77
2022/03/25 03:51:36;;;;;;;31.27;18.90;;;;;;;4.92;55.14;96456.81;6098668;23;20182;-77
2022/03/25 03:54:01;;;;;;;35.53;20.77;;;;;;;4.87;54.73;96451.13;6075247;23;20314;-80
2022/03/25 03:56:27;;;;;;;33.17;19.50;;;;;;;4.75;55.65;96453.47;6075564;23;20545;-77
2022/03/25 03:58:52;;;;;;;32.77;19.27;;;;;;;4.66;56.22;96450.59;6100144;23;20160;-78
2022/03/25 04:01:18;;;;;;;32.40;19.10;;;;;;;4.65;56.14;96451.53;6075314;23;20601;-78
2022/03/25 04:03:43;;;;;;;34.30;18.87;;;;;;;4.64;55.89;96452.44;6100598;23;20242;-78
2022/03/25 04:06:09;;;;;;;31.07;19.10;;;;;;;4.63;55.77;96459.34;6100458;23;20180;-76
2022/03/25 04:08:35;;;;;;;30.93;18.83;;;;;;;4.72;55.33;96450.25;6126627;23;20170;-80
2022/03/25 04:11:00;;;;;;;30.30;19.07;;;;;;;4.78;55.44;96448.16;6076256;23;20183;-78
2022/03/25 04:13:26;;;;;;;30.93;18.83;;;;;;;4.94;55.19;96452.38;6074952;23;20155;-78
2022/03/25 04:15:51;;;;;;;34.70;19.10;;;;;;;4.82;55.18;96449.63;6076178;23;20180;-78
2022/03/25 04:18:17;;;;;;;32.53;19.27;;;;;;;4.79;55.13;96452.41;6075838;23;20160;-77
2022/03/25 04:20:42;;;;;;;32.57;19.37;;;;;;;4.85;55.04;96443.47;6076485;23;20202;-78
2022/03/25 04:23:08;;;;;;;34.53;20.13;;;;;;;4.87;55.17;96453.69;6098393;23;20471;-78
2022/03/25 04:25:33;;;;;;;31.13;19.33;;;;;;;4.86;54.54;96449.44;6076486;23;20182;-78
2022/03/25 04:27:58;;;;;;;32.20;19.13;;;;;;;4.83;55.14;96447.88;6102548;23;20831;-77
2022/03/25 04:30:26;;;;;;;30.53;18.23;;;;;;;4.72;55.47;96452.84;6105015;23;20149;-78
2022/03/25 04:32:51;;;;;;;32.87;19.47;;;;;;;4.64;55.58;96453.28;6103847;23;20179;-78
2022/03/25 04:35:18;;;;;;;30.43;18.47;;;;;;;4.53;55.61;96453.09;6104679;23;20187;-77
2022/03/25 04:37:43;;;;;;;32.33;18.47;;;;;;;4.45;56.24;96448.38;6103706;23;20163;-80
2022/03/25 04:40:11;;;;;;;32.23;18.50;;;;;;;4.33;56.67;96449.09;6102991;23;20176;-78
2022/03/25 04:42:36;;;;;;;31.60;18.70;;;;;;;4.25;57.25;96446.94;6102340;23;20163;-78
2022/03/25 04:45:02;;;;;;;30.47;18.73;;;;;;;4.20;57.46;96451.50;6124970;23;20559;-78
2022/03/25 04:47:27;;;;;;;33.17;20.23;;;;;;;4.21;57.02;96448.03;6075530;23;20506;-79
2022/03/25 04:49:52;;;;;;;32.63;19.73;;;;;;;4.24;56.89;96447.88;6076187;23;20163;-79
2022/03/25 04:52:18;;;;;;;36.07;22.10;;;;;;;4.24;57.26;96452.16;6125155;23;20176;-78
2022/03/25 04:54:43;;;;;;;35.13;19.87;;;;;;;4.21;57.42;96445.44;6099951;23;20195;-79
2022/03/25 04:57:08;;;;;;;33.43;21.03;;;;;;;4.16;57.42;96444.91;6100976;23;20611;-79
2022/03/25 04:59:34;;;;;;;31.33;18.53;;;;;;;4.33;56.79;96443.09;6100526;23;20164;-78
2022/03/25 05:01:59;;;;;;;34.00;20.30;;;;;;;4.29;56.99;96449.34;6100328;23;20146;-79
2022/03/25 05:04:25;;;;;;;32.23;19.13;;;;;;;4.24;57.54;96447.88;6127392;23;20511;-79
2022/03/25 05:06:53;;;;;;;34.60;19.63;;;;;;;4.26;57.87;96437.50;6102100;23;20207;-78
2022/03/25 05:09:18;;;;;;;31.23;18.83;;;;;;;4.23;57.72;96445.34;6078063;23;20190;-78
2022/03/25 05:11:43;;;;;;;31.33;19.70;;;;;;;4.18;57.47;96437.91;6076698;23;20180;-77
2022/03/25 05:14:10;;;;;;;34.60;20.57;;;;;;;4.20;57.61;96433.50;6077576;23;20168;-78
2022/03/25 05:16:35;;;;;;;33.07;19.93;;;;;;;4.17;58.02;96432.88;6077102;23;20163;-77
2022/03/25 05:19:00;;;;;;;32.07;19.37;;;;;;;4.09;58.11;96435.88;6101914;23;20207;-78
2022/03/25 05:21:26;;;;;;;29.93;19.27;;;;;;;4.02;58.68;96431.97;6076500;23;20162;-77
2022/03/25 05:23:51;;;;;;;29.27;17.90;;;;;;;3.94;59.38;96436.72;6077509;23;20218;-79
2022/03/25 05:26:16;;;;;;;31.77;19.20;;;;;;;3.92;59.69;96435.97;6127330;23;20562;-79
2022/03/25 05:28:42;;;;;;;32.43;19.47;;;;;;;3.91;60.32;96434.34;6102217;23;20171;-78
2022/03/25 05:31:07;;;;;;;36.20;19.83;;;;;;;3.93;60.13;96435.06;6101187;23;20180;-78
2022/03/25 05:33:33;;;;;;;29.83;18.83;;;;;;;3.93;60.20;96443.59;6077915;23;20169;-78
2022/03/25 05:35:58;;;;;;;30.17;19.40;;;;;;;3.98;59.93;96441.63;6128378;23;20658;-79
2022/03/25 05:38:23;;;;;;;35.10;19.03;;;;;;;3.98;60.22;96446.75;6078194;23;20156;-78
2022/03/25 05:40:49;;;;;;;30.83;19.10;;;;;;;4.01;60.36;96450.91;6104165;23;20158;-79
2022/03/25 05:43:14;;;;;;;30.00;18.40;;;;;;;4.05;60.51;96447.22;6106081;23;20165;-79
2022/03/25 05:45:39;;;;;;;33.20;19.57;;;;;;;4.20;60.29;96454.09;6104091;23;20504;-78
2022/03/25 05:48:05;;;;;;;32.10;19.40;;;;;;;4.22;60.33;96452.25;6104386;23;20168;-83
2022/03/25 05:50:30;;;;;;;36.67;20.43;;;;;;;4.25;60.04;96454.66;6079668;23;20164;-81
2022/03/25 05:52:56;;;;;;;31.97;19.37;;;;;;;4.24;60.60;96465.88;6078149;23;20200;-81
2022/03/25 05:55:21;;;;;;;31.93;20.87;;;;;;;4.23;60.88;96461.59;6102920;23;20187;-81
2022/03/25 05:57:46;;;;;;;32.70;19.50;;;;;;;4.31;60.31;96465.50;6079795;23;20162;-80
2022/03/25 06:00:14;;;;;;;33.93;19.47;;;;;;;4.43;60.02;96469.97;6103342;23;20486;-79
2022/03/25 06:02:40;;;;;;;30.50;18.90;;;;;;;4.56;59.29;96468.31;6072286;23;20627;-79
2022/03/25 06:05:06;;;;;;;30.53;19.93;;;;;;;4.69;58.22;96469.28;6102333;23;20188;-79
2022/03/25 06:07:36;;;;;;;35.00;20.43;;;;;;;4.78;58.18;96470.50;6078661;23;20160;-80
2022/03/25 06:10:01;;;;;;;30.80;18.67;;;;;;;4.88;58.09;96468.22;6077958;23;20156;-80
2022/03/25 06:12:27;;;;;;;31.30;19.23;;;;;;;4.97;57.77;96468.50;6100882;23;20171;-81
2022/03/25 06:14:52;;;;;;;31.10;19.37;;;;;;;5.10;57.47;96468.56;6101776;23;20182;-83
2022/03/25 06:17:19;;;;;;;31.50;17.23;;;;;;;5.27;56.66;96475.28;6103520;23;20170;-79
2022/03/25 06:19:44;;;;;;;29.87;18.63;;;;;;;5.36;56.56;96467.00;6104178;23;20204;-82
2022/03/25 06:22:09;;;;;;;33.30;19.73;;;;;;;5.51;56.15;96466.09;6102362;23;20152;-80
2022/03/25 06:24:35;;;;;;;32.17;19.40;;;;;;;5.61;55.84;96474.06;6105289;23;20665;-80
2022/03/25 06:27:00;;;;;;;32.10;19.83;;;;;;;5.74;55.34;96472.38;6079453;23;20579;-78
2022/03/25 06:29:25;;;;;;;31.53;19.87;;;;;;;5.84;54.83;96480.38;6079238;23;20167;-79
2022/03/25 06:31:51;;;;;;;35.17;19.27;;;;;;;5.97;54.60;96476.13;6104423;23;20682;-81
2022/03/25 06:34:21;;;;;;;30.67;18.73;;;;;;;6.11;54.10;96477.84;6104674;23;20602;-79
2022/03/25 06:36:48;;;;;;;30.40;19.63;;;;;;;6.23;53.71;96479.63;6082007;23;20246;-80
2022/03/25 06:39:13;;;;;;;31.40;19.03;;;;;;;6.34;53.32;96482.34;6107393;23;20235;-80
2022/03/25 06:41:39;;;;;;;31.90;19.83;;;;;;;6.46;53.47;96483.31;6102452;23;20156;-80
2022/03/25 06:44:05;;;;;;;30.43;17.53;;;;;;;6.61;52.88;96487.47;6079390;23;20164;-79
2022/03/25 06:46:30;;;;;;;32.53;19.10;;;;;;;6.73;52.72;96485.84;6087599;23;20657;-80
2022/03/25 06:48:56;;;;;;;32.47;19.67;;;;;;;6.79;52.39;96482.84;6086653;23;20196;-80
2022/03/25 06:51:21;;;;;;;34.73;19.83;;;;;;;6.90;52.03;96488.16;6107426;23;20176;-80
2022/03/25 06:53:47;;;;;;;32.70;18.80;;;;;;;6.94;52.40;96497.34;6085568;23;20607;-79
2022/03/25 06:56:13;;;;;;;30.60;20.10;;;;;;;7.01;51.89;96490.84;6131759;23;20183;-80
2022/03/25 06:58:38;;;;;;;32.30;20.10;;;;;;;7.16;51.49;96496.75;6105464;23;20238;-79
2022/03/25 07:01:05;;;;;;;31.93;19.87;;;;;;;7.14;52.67;96493.41;6106002;23;20498;-79
2022/03/25 07:03:32;;;;;;;30.97;19.27;;;;;;;7.29;51.84;96494.97;6105319;23;20239;-79
2022/03/25 07:06:00;;;;;;;33.87;20.00;;;;;;;7.42;51.42;96500.13;6108224;23;20176;-78
2022/03/25 07:08:27;;;;;;;29.93;20.03;;;;;;;7.55;51.11;96500.94;6107066;23;20529;-80
2022/03/25 07:10:53;;;;;;;35.63;22.30;;;;;;;7.74;50.08;96499.66;6102422;23;20152;-80
2022/03/25 07:13:18;;;;;;;36.87;23.10;;;;;;;7.95;47.92;96503.31;6080089;23;20167;-81
2022/03/25 07:15:44;;;;;;;35.37;22.50;;;;;;;8.10;48.10;96504.00;6102625;23;20179;-80
2022/03/25 07:18:09;;;;;;;36.77;21.30;;;;;;;8.15;48.58;96504.50;6103863;23;20162;-80
2022/03/25 07:20:34;;;;;;;35.47;20.70;;;;;;;8.32;48.11;96505.91;6079980;23;20163;-80
2022/03/25 07:23:00;;;;;;;34.77;21.70;;;;;;;8.39;47.87;96513.13;6102477;23;20219;-81
2022/03/25 07:25:27;;;;;;;36.13;21.37;;;;;;;8.47;48.10;96509.97;6104638;23;20611;-81
2022/03/25 07:27:52;;;;;;;34.63;20.77;;;;;;;8.60;47.15;96515.94;6103910;23;20156;-81
2022/03/25 07:30:18;;;;;;;34.17;21.07;;;;;;;8.62;47.74;96519.22;6078507;23;20160;-80
2022/03/25 07:32:44;;;;;;;37.63;21.40;;;;;;;8.73;46.79;96521.84;6077997;23;20282;-81
2022/03/25 07:35:10;;;;;;;36.03;21.83;;;;;;;8.78;46.86;96524.94;6105084;23;20198;-81
2022/03/25 07:37:40;;;;;;;35.27;21.50;;;;;;;8.88;46.24;96525.09;6084417;23;20160;-79
2022/03/25 07:40:08;;;;;;;38.43;21.53;;;;;;;8.99;46.31;96526.88;6128365;23;20163;-79
2022/03/25 07:42:34;;;;;;;34.50;22.33;;;;;;;9.10;46.04;96537.28;6077568;23;20161;-80
2022/03/25 07:45:01;;;;;;;36.50;22.17;;;;;;;9.12;46.10;96531.97;6101730;23;20175;-80
2022/03/25 07:47:26;;;;;;;39.10;21.57;;;;;;;9.17;46.52;96529.84;6078821;23;20264;-79
2022/03/25 07:49:52;;;;;;;34.30;21.43;;;;;;;9.20;46.60;96530.47;6077650;23;20603;-78
2022/03/25 07:52:17;;;;;;;36.70;21.83;;;;;;;9.28;46.15;96535.91;6101263;23;20168;-81
2022/03/25 07:54:42;;;;;;;36.10;22.90;;;;;;;9.28;46.03;96533.31;6077936;23;20602;-79
2022/03/25 07:57:08;;;;;;;37.43;23.10;;;;;;;9.45;46.27;96538.97;6101608;23;20156;-80
2022/03/25 07:59:33;;;;;;;34.40;22.70;;;;;;;9.40;46.00;96535.91;6101186;23;20152;-80
2022/03/25 08:01:58;;;;;;;36.57;23.53;;;;;;;9.49;45.72;96540.41;6102480;23;20163;-80
2022/03/25 08:04:24;;;;;;;36.63;24.03;;;;;;;9.63;46.45;96535.81;6102017;23;20580;-80
2022/03/25 08:06:53;;;;;;;32.63;22.60;;;;;;;9.65;45.71;96541.72;6087308;23;20195;-80
2022/03/25 08:09:19;;;;;;;34.27;21.60;;;;;;;9.72;45.71;96542.06;6087920;23;20163;-79
2022/03/25 08:11:47;;;;;;;37.80;22.13;;;;;;;9.82;45.47;96537.81;6108271;23;20405;-78
2022/03/25 08:14:13;;;;;;;36.17;21.93;;;;;;;9.90;45.21;96537.22;6106729;23;20234;-81
2022/03/25 08:16:39;;;;;;;38.37;23.00;;;;;;;9.91;45.72;96531.91;6105691;23;20156;-80
2022/03/25 08:19:05;;;;;;;33.00;20.90;;;;;;;10.04;44.95;96536.13;6081095;23;20187;-80
2022/03/25 08:21:31;;;;;;;34.47;22.50;;;;;;;10.12;44.18;96539.78;6101366;23;20357;-79
2022/03/25 08:29:24;;;;;;;39.23;20.47;;;;;;;10.32;43.79;96545.19;6127850;23;20200;-80
2022/03/25 08:31:49;;;;;;;32.10;20.40;;;;;;;10.46;44.28;96553.56;6077214;23;20184;-79
2022/03/25 08:34:15;;;;;;;31.63;21.67;;;;;;;10.50;43.39;96554.13;6128812;23;20159;-80
2022/03/25 08:36:41;;;;;;;32.93;21.67;;;;;;;10.62;42.66;96547.13;6102459;23;20209;-81
2022/03/25 08:39:07;;;;;;;34.63;21.17;;;;;;;10.78;39.63;96556.16;6104079;23;20633;-78
2022/03/25 08:41:32;;;;;;;31.40;21.50;;;;;;;10.89;41.89;96555.28;6080777;23;20238;-80
2022/03/25 08:43:57;;;;;;;32.63;20.27;;;;;;;11.01;41.70;96548.25;6106000;23;20168;-81
2022/03/25 08:46:23;;;;;;;33.67;21.83;;;;;;;11.04;41.96;96550.59;6079381;23;20507;-80
2022/03/25 08:48:48;;;;;;;28.83;20.10;;;;;;;10.99;41.27;96556.19;6128069;23;20337;-80
2022/03/25 08:51:14;;;;;;;33.30;21.40;;;;;;;11.00;42.61;96552.63;6078897;23;20184;-79
2022/03/25 08:53:40;;;;;;;34.57;22.47;;;;;;;11.15;40.65;96558.34;6127555;23;20556;-78
2022/03/25 08:56:06;;;;;;;33.87;23.07;;;;;;;11.11;41.56;96564.75;6103561;23;20211;-78
2022/03/25 08:58:31;;;;;;;36.27;24.07;;;;;;;11.26;40.13;96563.50;6104397;23;20191;-80
2022/03/25 09:00:57;;;;;;;38.27;23.87;;;;;;;11.17;40.04;96564.25;6103426;23;20164;-80
2022/03/25 09:03:23;;;;;;;36.30;23.40;;;;;;;11.39;40.01;96559.84;6106064;23;20598;-80
2022/03/25 09:05:48;;;;;;;37.33;23.50;;;;;;;11.30;39.66;96556.25;6107537;23;20187;-81
2022/03/25 09:08:15;;;;;;;38.20;23.77;;;;;;;11.34;40.09;96555.88;6079943;23;20219;-79
2022/03/25 09:10:40;;;;;;;38.20;23.73;;;;;;;11.44;40.83;96561.13;6106568;23;20159;-80
2022/03/25 09:13:05;;;;;;;36.93;23.57;;;;;;;11.48;39.40;96564.28;6105426;23;20203;-80
2022/03/25 09:15:31;;;;;;;38.30;23.80;;;;;;;11.63;39.90;96556.03;6106090;23;20702;-80
2022/03/25 09:17:56;;;;;;;35.70;23.33;;;;;;;11.82;40.48;96564.91;6105767;23;20175;-78
2022/03/25 09:20:21;;;;;;;33.63;22.40;;;;;;;11.89;40.02;96555.63;6129855;23;20286;-80
2022/03/25 09:22:46;;;;;;;35.30;22.77;;;;;;;11.90;39.70;96557.28;6105932;23;20162;-80
2022/03/25 09:25:13;;;;;;;31.13;21.13;;;;;;;12.04;39.64;96559.53;6106319;23;20630;-79
2022/03/25 09:27:39;;;;;;;36.27;22.63;;;;;;;12.16;39.88;96553.25;6133253;23;20152;-80
2022/03/25 09:30:06;;;;;;;35.17;23.90;;;;;;;12.15;38.80;96554.22;6105428;23;20152;-80
2022/03/25 09:32:31;;;;;;;34.77;22.37;;;;;;;12.27;39.17;96560.13;6080287;23;20571;-79
2022/03/25 09:35:09;;;;;;;35.23;23.07;;;;;;;12.31;38.45;96552.91;6080272;23;20179;-80
2022/03/25 09:37:42;;;;;;;31.40;22.97;;;;;;;12.41;39.36;96557.16;6084478;23;20144;-80
2022/03/25 09:40:12;;;;;;;34.33;23.00;;;;;;;12.47;39.44;96563.63;6104718;23;20470;-78
2022/03/25 09:42:37;;;;;;;38.77;24.77;;;;;;;12.40;38.47;96557.31;6104155;23;20646;-76
2022/03/25 09:45:04;;;;;;;34.53;23.37;;;;;;;12.72;38.91;96557.06;6104385;23;20172;-77
2022/03/25 09:47:32;;;;;;;34.03;22.47;;;;;;;12.71;36.03;96558.00;6130955;23;20159;-78
2022/03/25 09:49:59;;;;;;;32.07;21.63;;;;;;;12.72;37.03;96564.88;6081843;23;20185;-77
2022/03/25 09:52:26;;;;;;;35.73;22.63;;;;;;;12.74;35.78;96557.75;6080844;23;20186;-78
2022/03/25 09:54:54;;;;;;;36.20;24.10;;;;;;;12.93;36.08;96557.75;6105550;23;20244;-79
2022/03/25 09:57:23;;;;;;;33.60;22.90;;;;;;;12.86;36.60;96561.88;6131287;23;20148;-80
2022/03/25 09:59:48;;;;;;;35.93;23.60;;;;;;;12.90;37.22;96562.44;6131941;23;20164;-78
2022/03/25 10:02:13;;;;;;;32.53;22.23;;;;;;;13.24;37.34;96558.44;6080615;23;20630;-79
2022/03/25 10:04:45;;;;;;;35.57;22.97;;;;;;;13.26;35.64;96559.16;6104921;23;20188;-77
2022/03/25 10:07:19;;;;;;;39.77;23.50;;;;;;;13.10;35.41;96558.84;6103763;23;20152;-80
2022/03/25 10:09:47;;;;;;;36.67;23.40;;;;;;;13.21;36.22;96555.31;6104722;23;20163;-78
2022/03/25 10:12:23;;;;;;;35.27;22.93;;;;;;;13.19;37.10;96552.00;6103486;23;20637;-79
2022/03/25 10:14:50;;;;;;;34.87;23.27;;;;;;;13.37;36.34;96546.91;6082048;23;20186;-80
2022/03/25 10:17:16;;;;;;;39.53;24.43;;;;;;;13.43;36.17;96559.38;6080744;23;20156;-80
2022/03/25 10:19:49;;;;;;;36.23;24.13;;;;;;;13.36;35.33;96553.91;6105201;23;20188;-79
2022/03/25 10:22:16;;;;;;;38.87;24.57;;;;;;;13.52;35.24;96561.16;6103033;23;20163;-80
2022/03/25 10:24:49;;;;;;;36.67;24.43;;;;;;;13.41;34.57;96556.09;6079526;23;20191;-79
2022/03/25 10:27:25;;;;;;;38.20;24.10;;;;;;;13.43;35.09;96557.63;6103474;23;20622;-79
2022/03/25 10:29:54;;;;;;;33.13;23.40;;;;;;;13.48;36.07;96562.41;6104146;23;20136;-80
2022/03/25 10:32:23;;;;;;;34.23;23.43;;;;;;;13.59;35.31;96554.41;6105332;23;20172;-79
2022/03/25 10:35:07;;;;;;;37.43;24.77;;;;;;;13.54;34.32;96561.84;6106306;23;20172;-80
2022/03/25 10:37:32;;;;;;;36.17;25.10;;;;;;;13.53;34.64;96554.97;6132208;23;20160;-80
2022/03/25 10:39:58;;;;;;;35.43;24.07;;;;;;;13.62;34.45;96559.34;6106412;23;20156;-78
2022/03/25 10:42:33;;;;;;;34.47;23.73;;;;;;;13.55;35.37;96559.09;6079245;23;20153;-81
2022/03/25 10:44:59;;;;;;;36.93;23.90;;;;;;;13.58;34.47;96547.53;6102769;23;20175;-80
2022/03/25 10:47:26;;;;;;;35.77;24.33;;;;;;;13.74;34.78;96552.16;6128516;23;20190;-79
2022/03/25 10:49:52;;;;;;;34.87;25.00;;;;;;;13.67;34.92;96553.69;6079209;23;20206;-80
2022/03/25 10:52:23;;;;;;;34.00;24.00;;;;;;;13.81;34.73;96554.06;6079492;23;20188;-79
2022/03/25 10:54:49;;;;;;;38.97;26.73;;;;;;;13.70;35.37;96545.59;6130547;23;20179;-80
2022/03/25 10:57:16;;;;;;;36.10;24.13;;;;;;;13.68;34.57;96553.53;6129610;23;20230;-79
2022/03/25 10:59:41;;;;;;;40.50;25.23;;;;;;;13.81;34.95;96548.03;6079570;23;20607;-79
2022/03/25 11:02:08;;;;;;;38.40;24.17;;;;;;;13.74;34.10;96547.75;6082033;23;20156;-78
2022/03/25 11:04:34;;;;;;;41.67;24.60;;;;;;;13.89;34.42;96550.75;6082609;23;20176;-79
2022/03/25 11:07:01;;;;;;;39.67;25.20;;;;;;;13.76;34.40;96540.59;6081560;23;20159;-79
2022/03/25 11:09:27;;;;;;;35.20;25.93;;;;;;;14.01;35.23;96530.47;6105022;23;20176;-79
2022/03/25 11:11:53;;;;;;;38.77;25.47;;;;;;;14.12;33.82;96545.94;6103950;23;20645;-79
2022/03/25 11:14:21;;;;;;;36.60;24.97;;;;;;;14.22;34.60;96540.69;6104668;23;20156;-79
2022/03/25 11:16:53;;;;;;;32.33;22.40;;;;;;;14.42;31.37;96540.44;6128741;23;20136;-79
2022/03/25 11:19:19;;;;;;;29.73;22.60;;;;;;;14.61;31.98;96536.09;6080218;23;20164;-77
2022/03/25 11:21:46;;;;;;;34.37;23.43;;;;;;;14.77;31.45;96549.31;6130415;23;20149;-79
2022/03/25 11:24:25;;;;;;;32.53;21.97;;;;;;;14.74;29.92;96532.09;6104402;23;20156;-81